createdAt,value
2023-03-11T00:00:19.059Z,5.32
2023-03-11T00:02:48.388Z,5.45
2023-03-11T00:05:39.653Z,5.61
2023-03-11T00:08:09.279Z,5.44
2023-03-11T00:10:41.813Z,5.27
2023-03-11T00:13:30.019Z,5.19
2023-03-11T00:15:57.705Z,5.13
2023-03-11T00:18:27.295Z,5.19
2023-03-11T00:20:55.662Z,5.08
2023-03-11T00:23:22.670Z,5.07
2023-03-11T00:25:49.358Z,5.03
2023-03-11T00:28:17.030Z,4.92
2023-03-11T00:30:45.974Z,5.07
2023-03-11T00:33:15.263Z,5.08
2023-03-11T00:35:42.993Z,5.11
2023-03-11T00:38:15.067Z,5.19
2023-03-11T00:40:43.325Z,5.49
2023-03-11T00:43:10.270Z,5.26
2023-03-11T00:45:37.237Z,5.30
2023-03-11T00:48:04.615Z,5.36
2023-03-11T00:50:33.438Z,5.46
2023-03-11T00:53:01.278Z,5.60
2023-03-11T00:55:31.345Z,5.53
2023-03-11T00:58:00.544Z,5.72
2023-03-11T01:00:29.396Z,5.68
2023-03-11T01:02:57.377Z,5.51
2023-03-11T01:05:27.610Z,5.72
2023-03-11T01:07:54.198Z,5.69
2023-03-11T01:10:20.853Z,5.67
2023-03-11T01:12:48.245Z,5.39
2023-03-11T01:15:22.166Z,5.53
2023-03-11T01:17:48.786Z,5.32
2023-03-11T01:20:15.990Z,5.60
2023-03-11T01:22:43.107Z,5.67
2023-03-11T01:25:13.934Z,5.88
2023-03-11T01:27:40.959Z,5.74
2023-03-11T01:30:08.409Z,5.75
2023-03-11T01:32:35.240Z,5.62
2023-03-11T01:35:01.864Z,5.38
2023-03-11T01:37:28.534Z,5.45
2023-03-11T01:39:55.153Z,5.62
2023-03-11T01:42:21.873Z,5.86
2023-03-11T01:44:48.530Z,6.27
2023-03-11T01:47:31.833Z,6.33
2023-03-11T01:49:58.782Z,6.39
2023-03-11T01:52:25.528Z,6.36
2023-03-11T01:54:52.200Z,6.23
2023-03-11T01:57:18.820Z,6.17
2023-03-11T01:59:51.969Z,6.07
2023-03-11T02:02:31.706Z,5.95
2023-03-11T02:05:02.092Z,6.15
2023-03-11T02:07:28.873Z,6.08
2023-03-11T02:09:55.507Z,6.00
2023-03-11T02:12:22.804Z,5.65
2023-03-11T02:14:52.756Z,5.68
2023-03-11T02:17:19.694Z,5.63
2023-03-11T02:20:28.019Z,5.57
2023-03-11T02:22:56.888Z,5.46
2023-03-11T02:25:42.532Z,5.42
2023-03-11T02:28:14.027Z,5.66
2023-03-11T02:30:43.857Z,5.48
2023-03-11T02:33:12.436Z,5.52
2023-03-11T02:35:39.093Z,6.04
2023-03-11T02:38:05.727Z,5.69
2023-03-11T02:40:48.007Z,5.84
2023-03-11T02:43:18.014Z,5.90
2023-03-11T02:45:47.592Z,5.91
2023-03-11T02:48:15.712Z,5.72
2023-03-11T02:50:46.092Z,5.63
2023-03-11T02:53:13.323Z,5.64
2023-03-11T02:55:40.027Z,5.97
2023-03-11T02:58:06.673Z,6.01
2023-03-11T03:00:33.316Z,6.15
2023-03-11T03:03:00.391Z,6.50
2023-03-11T03:05:27.392Z,6.82
2023-03-11T03:07:54.213Z,6.37
2023-03-11T03:10:22.675Z,6.16
2023-03-11T03:12:49.347Z,5.81
2023-03-11T03:15:16.350Z,6.29
2023-03-11T03:17:43.248Z,6.13
2023-03-11T03:20:10.574Z,6.38
2023-03-11T03:22:38.210Z,6.33
2023-03-11T03:25:05.948Z,6.57
2023-03-11T03:27:34.770Z,6.33
2023-03-11T03:30:01.436Z,6.33
2023-03-11T03:32:28.449Z,6.54
2023-03-11T03:34:55.102Z,6.80
2023-03-11T03:37:21.708Z,7.38
2023-03-11T03:39:48.341Z,7.46
2023-03-11T03:42:14.989Z,7.53
2023-03-11T03:44:41.609Z,7.23
2023-03-11T03:47:08.271Z,6.54
2023-03-11T03:49:34.885Z,7.01
2023-03-11T03:52:01.493Z,7.15
2023-03-11T03:54:28.122Z,6.99
2023-03-11T03:56:54.753Z,6.86
2023-03-11T03:59:21.597Z,7.15
2023-03-11T04:01:48.200Z,7.35
2023-03-11T04:04:14.896Z,7.45
2023-03-11T04:06:43.040Z,7.54
2023-03-11T04:09:11.891Z,7.68
2023-03-11T04:11:39.015Z,7.58
2023-03-11T04:14:06.072Z,7.76
2023-03-11T04:16:33.582Z,8.01
2023-03-11T04:19:00.217Z,7.97
2023-03-11T04:21:26.850Z,7.45
2023-03-11T04:23:53.533Z,6.92
2023-03-11T04:26:20.135Z,6.74
2023-03-11T04:28:46.783Z,7.13
2023-03-11T04:31:13.493Z,7.16
2023-03-11T04:33:40.123Z,6.71
2023-03-11T04:36:09.141Z,7.10
2023-03-11T04:38:36.268Z,7.36
2023-03-11T04:41:05.767Z,7.39
2023-03-11T04:43:33.560Z,7.35
2023-03-11T04:46:00.441Z,6.75
2023-03-11T04:48:27.137Z,6.51
2023-03-11T04:50:53.956Z,6.78
2023-03-11T04:53:20.562Z,7.00
2023-03-11T04:55:47.236Z,7.06
2023-03-11T04:58:14.193Z,7.05
2023-03-11T05:00:40.873Z,7.08
2023-03-11T05:03:07.524Z,6.87
2023-03-11T05:05:34.341Z,6.54
2023-03-11T05:08:00.957Z,6.54
2023-03-11T05:10:27.873Z,6.99
2023-03-11T05:12:55.211Z,7.01
2023-03-11T05:15:21.880Z,6.50
2023-03-11T05:17:48.501Z,6.75
2023-03-11T05:20:15.971Z,6.95
2023-03-11T05:22:43.186Z,6.16
2023-03-11T05:25:10.009Z,6.33
2023-03-11T05:27:36.701Z,6.44
2023-03-11T05:30:04.320Z,6.85
2023-03-11T05:32:31.201Z,6.95
2023-03-11T05:34:57.857Z,7.08
2023-03-11T05:37:24.586Z,7.02
2023-03-11T05:39:52.906Z,6.84
2023-03-11T05:42:21.375Z,6.63
2023-03-11T05:44:48.619Z,6.71
2023-03-11T05:47:17.173Z,7.12
2023-03-11T05:49:43.820Z,6.98
2023-03-11T05:52:10.436Z,7.02
2023-03-11T05:54:37.065Z,7.12
2023-03-11T05:57:03.843Z,7.28
2023-03-11T05:59:30.492Z,7.28
2023-03-11T06:01:57.180Z,7.89
2023-03-11T06:04:24.591Z,7.68
2023-03-11T06:06:51.301Z,7.39
2023-03-11T06:09:17.922Z,7.34
2023-03-11T06:11:44.596Z,6.86
2023-03-11T06:14:13.700Z,7.25
2023-03-11T06:16:40.883Z,7.38
2023-03-11T06:19:07.820Z,7.32
2023-03-11T06:21:34.468Z,6.52
2023-03-11T06:24:01.252Z,6.92
2023-03-11T06:26:28.344Z,7.27
2023-03-11T06:28:54.988Z,7.85
2023-03-11T06:31:28.384Z,8.02
2023-03-11T06:33:55.820Z,8.29
2023-03-11T06:36:23.089Z,8.36
2023-03-11T06:38:53.075Z,8.53
2023-03-11T06:41:20.081Z,8.82
2023-03-11T06:43:49.651Z,8.87
2023-03-11T06:46:20.414Z,8.85
2023-03-11T06:48:47.510Z,9.03
2023-03-11T06:51:14.550Z,9.09
2023-03-11T06:53:41.169Z,8.31
2023-03-11T06:56:09.656Z,8.48
2023-03-11T06:58:38.253Z,8.46
2023-03-11T07:01:11.413Z,8.80
2023-03-11T07:03:39.127Z,8.78
2023-03-11T07:06:06.844Z,8.82
2023-03-11T07:08:33.611Z,8.17
2023-03-11T07:11:14.750Z,7.81
2023-03-11T07:13:41.847Z,8.14
2023-03-11T07:16:12.646Z,8.42
2023-03-11T07:18:39.401Z,8.52
2023-03-11T07:21:07.857Z,8.64
2023-03-11T07:23:35.795Z,8.29
2023-03-11T07:26:02.497Z,8.37
2023-03-11T07:28:29.545Z,8.09
2023-03-11T07:30:56.932Z,8.39
2023-03-11T07:33:24.170Z,8.47
2023-03-11T07:35:51.623Z,8.07
2023-03-11T07:38:18.343Z,8.18
2023-03-11T07:40:45.280Z,7.94
2023-03-11T07:43:12.060Z,7.76
2023-03-11T07:45:38.862Z,7.91
2023-03-11T07:48:06.535Z,7.74
2023-03-11T07:50:33.232Z,7.23
2023-03-11T07:53:00.023Z,6.33
2023-03-11T07:55:26.708Z,6.62
2023-03-11T07:57:53.421Z,6.70
2023-03-11T08:00:20.342Z,6.46
2023-03-11T08:02:47.061Z,6.31
2023-03-11T08:05:13.859Z,6.86
2023-03-11T08:07:40.494Z,7.20
2023-03-11T08:10:10.649Z,7.71
2023-03-11T08:12:37.257Z,7.91
2023-03-11T08:15:04.248Z,7.60
2023-03-11T08:17:30.863Z,7.60
2023-03-11T08:19:57.605Z,7.45
2023-03-11T08:22:24.417Z,6.81
2023-03-11T08:24:52.435Z,6.38
2023-03-11T08:27:19.102Z,6.32
2023-03-11T08:29:45.718Z,5.88
2023-03-11T08:32:12.429Z,6.31
2023-03-11T08:34:39.125Z,6.91
2023-03-11T08:37:05.768Z,7.19
2023-03-11T08:39:32.405Z,7.99
2023-03-11T08:41:59.020Z,8.42
2023-03-11T08:44:25.605Z,7.84
2023-03-11T08:46:52.250Z,8.13
2023-03-11T08:49:18.872Z,7.74
2023-03-11T08:51:45.589Z,8.09
2023-03-11T08:54:12.233Z,8.51
2023-03-11T08:56:38.942Z,8.12
2023-03-11T08:59:05.555Z,8.35
2023-03-11T09:01:32.190Z,7.74
2023-03-11T09:03:58.810Z,7.22
2023-03-11T09:06:25.525Z,7.05
2023-03-11T09:08:52.175Z,6.66
2023-03-11T09:11:19.487Z,7.63
2023-03-11T09:13:46.141Z,7.75
2023-03-11T09:16:16.382Z,7.83
2023-03-11T09:18:43.240Z,7.38
2023-03-11T09:21:10.149Z,7.32
2023-03-11T09:23:37.003Z,6.88
2023-03-11T09:26:03.870Z,7.76
2023-03-11T09:28:30.633Z,7.91
2023-03-11T09:30:57.866Z,7.68
2023-03-11T09:33:24.879Z,7.34
2023-03-11T09:35:51.678Z,7.18
2023-03-11T09:38:18.320Z,6.81
2023-03-11T09:41:23.297Z,7.36
2023-03-11T09:44:04.268Z,6.88
2023-03-11T09:47:04.398Z,6.68
2023-03-11T09:50:02.885Z,7.40
2023-03-11T09:52:58.717Z,7.65
2023-03-11T09:55:48.377Z,8.35
2023-03-11T09:58:17.823Z,7.69
2023-03-11T10:00:45.721Z,7.70
2023-03-11T10:03:37.385Z,8.45
2023-03-11T10:06:16.432Z,8.35
2023-03-11T10:08:48.676Z,7.21
2023-03-11T10:11:18.182Z,7.80
2023-03-11T10:13:53.817Z,7.64
2023-03-11T10:16:35.762Z,6.92
2023-03-11T10:19:18.613Z,7.75
2023-03-11T10:21:45.189Z,7.92
2023-03-11T10:24:37.968Z,7.34
2023-03-11T10:27:45.702Z,7.09
2023-03-11T10:30:33.770Z,6.62
2023-03-11T10:33:13.889Z,7.50
2023-03-11T10:35:44.125Z,6.31
2023-03-11T10:38:18.271Z,6.91
2023-03-11T10:40:47.988Z,7.89
2023-03-11T10:43:24.829Z,8.32
2023-03-11T10:45:54.003Z,8.64
2023-03-11T10:48:22.457Z,8.72
2023-03-11T10:51:02.724Z,8.04
2023-03-11T10:53:30.594Z,8.86
2023-03-11T10:55:59.722Z,8.80
2023-03-11T10:58:32.342Z,9.16
2023-03-11T11:01:17.101Z,9.40
2023-03-11T11:03:50.268Z,9.12
2023-03-11T11:06:35.747Z,9.36
2023-03-11T11:09:18.104Z,9.68
2023-03-11T11:11:59.955Z,9.53
2023-03-11T11:14:26.729Z,9.44
2023-03-11T11:16:55.312Z,8.85
2023-03-11T11:19:22.257Z,8.77
2023-03-11T11:21:50.421Z,8.96
2023-03-11T11:24:25.388Z,8.67
2023-03-11T11:27:11.367Z,9.22
2023-03-11T11:29:38.183Z,9.16
2023-03-11T11:32:17.061Z,9.25
2023-03-11T11:34:57.053Z,9.38
2023-03-11T11:37:25.604Z,9.84
2023-03-11T11:39:59.112Z,10.17
2023-03-11T11:42:31.041Z,9.69
2023-03-11T11:45:05.609Z,9.55
2023-03-11T11:47:39.864Z,9.58
2023-03-11T11:50:18.299Z,9.79
2023-03-11T11:52:55.820Z,9.69
2023-03-11T11:55:29.685Z,9.60
2023-03-11T11:57:57.602Z,9.11
2023-03-11T12:00:48.153Z,9.56
2023-03-11T12:03:53.599Z,9.72
2023-03-11T12:06:46.345Z,8.97
2023-03-11T12:09:28.240Z,9.48
2023-03-11T12:12:08.405Z,9.72
2023-03-11T12:14:55.295Z,10.29
2023-03-11T12:17:25.928Z,8.93
2023-03-11T12:20:07.769Z,9.41
2023-03-11T12:23:01.677Z,9.71
2023-03-11T12:25:37.308Z,9.12
2023-03-11T12:28:37.086Z,8.98
2023-03-11T12:31:09.215Z,9.69
2023-03-11T12:33:41.079Z,9.37
2023-03-11T12:36:41.075Z,9.42
2023-03-11T12:39:22.488Z,10.07
2023-03-11T12:42:09.513Z,10.27
2023-03-11T12:44:36.851Z,9.87
2023-03-11T12:47:12.409Z,9.44
2023-03-11T12:49:45.502Z,9.97
2023-03-11T12:52:12.380Z,9.86
2023-03-11T12:54:40.181Z,9.70
2023-03-11T12:57:44.227Z,9.89
2023-03-11T13:00:41.940Z,9.21
2023-03-11T13:03:32.788Z,9.21
2023-03-11T13:06:13.161Z,8.24
2023-03-11T13:08:53.597Z,8.81
2023-03-11T13:11:49.324Z,9.23
2023-03-11T13:14:26.379Z,9.70
2023-03-11T13:16:53.981Z,8.82
2023-03-11T13:19:53.768Z,9.03
2023-03-11T13:22:39.233Z,8.55
2023-03-11T13:25:40.180Z,8.86
2023-03-11T13:28:25.108Z,9.30
2023-03-11T13:31:13.707Z,9.74
2023-03-11T13:33:54.418Z,9.43
2023-03-11T13:36:30.052Z,9.33
2023-03-11T13:39:14.837Z,9.29
2023-03-11T13:41:43.989Z,8.68
2023-03-11T13:44:19.718Z,8.68
2023-03-11T13:46:56.812Z,9.09
2023-03-11T13:49:28.089Z,8.59
2023-03-11T13:51:57.457Z,7.72
2023-03-11T13:54:59.573Z,7.77
2023-03-11T13:57:31.600Z,7.58
2023-03-11T14:00:15.737Z,8.13
2023-03-11T14:02:49.716Z,7.51
2023-03-11T14:05:22.889Z,7.94
2023-03-11T14:07:49.890Z,8.27
2023-03-11T14:10:17.921Z,8.75
2023-03-11T14:12:46.256Z,8.75
2023-03-11T14:15:24.465Z,8.88
2023-03-11T14:17:53.605Z,8.63
2023-03-11T14:20:23.471Z,8.91
2023-03-11T14:22:53.271Z,8.05
2023-03-11T14:25:25.654Z,7.87
2023-03-11T14:28:19.609Z,8.20
2023-03-11T14:30:57.748Z,8.42
2023-03-11T14:33:25.357Z,7.49
2023-03-11T14:35:55.503Z,8.48
2023-03-11T14:38:28.598Z,8.88
2023-03-11T14:41:02.617Z,9.00
2023-03-11T14:43:37.528Z,9.18
2023-03-11T14:46:07.634Z,8.65
2023-03-11T14:48:39.364Z,8.19
2023-03-11T14:51:17.981Z,8.64
2023-03-11T14:54:05.990Z,8.22
2023-03-11T14:56:39.675Z,8.32
2023-03-11T14:59:22.553Z,8.56
2023-03-11T15:01:51.299Z,9.06
2023-03-11T15:04:33.202Z,8.66
2023-03-11T15:07:03.713Z,8.66
2023-03-11T15:09:32.166Z,8.26
2023-03-11T15:12:01.962Z,8.72
2023-03-11T15:14:34.631Z,9.06
2023-03-11T15:17:35.359Z,9.27
2023-03-11T15:20:29.010Z,9.33
2023-03-11T15:22:58.713Z,9.57
2023-03-11T15:25:25.512Z,9.30
2023-03-11T15:27:52.509Z,9.00
2023-03-11T15:30:31.088Z,9.15
2023-03-11T15:32:59.022Z,8.83
2023-03-11T15:35:30.843Z,8.74
2023-03-11T15:38:23.770Z,8.78
2023-03-11T15:41:02.369Z,9.31
2023-03-11T15:43:33.668Z,9.10
2023-03-11T15:46:02.973Z,9.40
2023-03-11T15:48:29.986Z,8.32
2023-03-11T15:50:59.382Z,8.40
2023-03-11T15:53:28.413Z,8.39
2023-03-11T15:56:07.515Z,8.79
2023-03-11T15:58:36.953Z,9.27
2023-03-11T16:01:03.727Z,9.44
2023-03-11T16:03:31.569Z,8.67
2023-03-11T16:05:58.368Z,7.88
2023-03-11T16:08:25.086Z,8.67
2023-03-11T16:10:51.897Z,8.28
2023-03-11T16:13:18.909Z,8.80
2023-03-11T16:15:45.917Z,8.92
2023-03-11T16:18:13.145Z,8.26
2023-03-11T16:20:51.967Z,8.89
2023-03-11T16:23:21.501Z,9.24
2023-03-11T16:25:49.342Z,9.42
2023-03-11T16:28:17.264Z,9.29
2023-03-11T16:30:44.912Z,9.43
2023-03-11T16:33:11.546Z,9.38
2023-03-11T16:35:38.646Z,9.20
2023-03-11T16:38:07.252Z,9.40
2023-03-11T16:40:33.973Z,9.22
2023-03-11T16:43:04.416Z,8.03
2023-03-11T16:45:31.509Z,8.69
2023-03-11T16:47:58.178Z,9.16
2023-03-11T16:50:25.262Z,9.38
2023-03-11T16:52:55.746Z,9.46
2023-03-11T16:55:24.740Z,8.44
2023-03-11T16:57:51.409Z,8.74
2023-03-11T17:00:18.618Z,9.21
2023-03-11T17:02:45.306Z,8.68
2023-03-11T17:05:12.712Z,9.27
2023-03-11T17:07:40.390Z,9.52
2023-03-11T17:10:09.401Z,9.47
2023-03-11T17:12:37.740Z,9.36
2023-03-11T17:15:06.538Z,8.64
2023-03-11T17:17:33.257Z,9.11
2023-03-11T17:19:59.921Z,9.34
2023-03-11T17:22:26.605Z,9.64
2023-03-11T17:24:53.343Z,9.32
2023-03-11T17:27:19.958Z,9.57
2023-03-11T17:29:46.628Z,9.92
2023-03-11T17:32:15.762Z,10.00
2023-03-11T17:34:43.717Z,9.96
2023-03-11T17:37:10.377Z,9.14
2023-03-11T17:39:36.992Z,8.51
2023-03-11T17:42:03.873Z,9.18
2023-03-11T17:44:44.641Z,8.32
2023-03-11T17:47:17.065Z,9.18
2023-03-11T17:49:43.696Z,9.24
2023-03-11T17:52:10.323Z,9.00
2023-03-11T17:54:36.928Z,9.28
2023-03-11T17:57:03.770Z,9.71
2023-03-11T17:59:30.413Z,9.87
2023-03-11T18:01:57.111Z,10.09
2023-03-11T18:04:23.844Z,9.19
2023-03-11T18:06:50.580Z,8.48
2023-03-11T18:09:17.201Z,9.28
2023-03-11T18:11:43.888Z,9.73
2023-03-11T18:14:10.553Z,9.87
2023-03-11T18:16:37.418Z,9.97
2023-03-11T18:19:05.021Z,9.11
2023-03-11T18:21:32.365Z,9.00
2023-03-11T18:24:00.653Z,9.64
2023-03-11T18:26:29.891Z,8.99
2023-03-11T18:28:58.268Z,9.49
2023-03-11T18:31:26.741Z,8.98
2023-03-11T18:33:56.948Z,8.16
2023-03-11T18:36:32.761Z,8.85
2023-03-11T18:39:00.620Z,7.89
2023-03-11T18:41:31.923Z,8.53
2023-03-11T18:43:59.079Z,7.96
2023-03-11T18:46:28.798Z,8.53
2023-03-11T18:48:56.969Z,8.68
2023-03-11T18:51:25.052Z,9.09
2023-03-11T18:53:51.694Z,8.21
2023-03-11T18:56:19.125Z,9.00
2023-03-11T18:58:46.780Z,9.24
2023-03-11T19:01:16.675Z,8.68
2023-03-11T19:03:45.212Z,8.88
2023-03-11T19:06:13.035Z,8.22
2023-03-11T19:08:40.396Z,8.14
2023-03-11T19:11:13.973Z,8.76
2023-03-11T19:13:47.026Z,8.81
2023-03-11T19:16:18.152Z,9.22
2023-03-11T19:18:46.176Z,9.11
2023-03-11T19:21:15.437Z,9.44
2023-03-11T19:23:42.459Z,8.84
2023-03-11T19:26:09.193Z,8.54
2023-03-11T19:28:35.910Z,9.16
2023-03-11T19:31:03.129Z,8.39
2023-03-11T19:33:29.912Z,8.90
2023-03-11T19:36:00.430Z,8.83
2023-03-11T19:38:28.977Z,8.94
2023-03-11T19:41:14.794Z,9.28
2023-03-11T19:43:42.168Z,9.58
2023-03-11T19:46:12.014Z,9.73
2023-03-11T19:48:38.760Z,9.65
2023-03-11T19:51:05.920Z,8.82
2023-03-11T19:53:33.205Z,8.30
2023-03-11T19:56:00.027Z,8.56
2023-03-11T19:58:30.414Z,8.63
2023-03-11T20:00:58.171Z,8.76
2023-03-11T20:03:26.012Z,8.51
2023-03-11T20:05:53.236Z,8.60
2023-03-11T20:08:21.480Z,8.48
2023-03-11T20:10:50.485Z,9.09
2023-03-11T20:13:19.210Z,8.86
2023-03-11T20:15:46.744Z,9.13
2023-03-11T20:18:13.557Z,8.22
2023-03-11T20:20:40.332Z,8.83
2023-03-11T20:23:07.089Z,9.29
2023-03-11T20:25:41.321Z,9.51
2023-03-11T20:28:08.729Z,9.59
2023-03-11T20:30:38.286Z,9.75
2023-03-11T20:33:05.400Z,9.97
2023-03-11T20:35:32.120Z,9.90
2023-03-11T20:37:59.252Z,10.14
2023-03-11T20:40:26.075Z,9.87
2023-03-11T20:42:52.713Z,9.08
2023-03-11T20:45:19.336Z,9.65
2023-03-11T20:47:45.990Z,9.60
2023-03-11T20:50:13.014Z,9.80
2023-03-11T20:52:40.017Z,9.32
2023-03-11T20:55:07.763Z,8.84
2023-03-11T20:57:34.407Z,9.41
2023-03-11T21:00:01.158Z,9.63
2023-03-11T21:02:27.900Z,9.41
2023-03-11T21:04:54.633Z,9.50
2023-03-11T21:07:21.407Z,9.78
2023-03-11T21:09:48.188Z,9.69
2023-03-11T21:12:14.942Z,9.68
2023-03-11T21:14:41.600Z,9.47
2023-03-11T21:17:08.467Z,9.23
2023-03-11T21:19:35.314Z,8.87
2023-03-11T21:22:02.037Z,9.22
2023-03-11T21:24:28.746Z,9.10
2023-03-11T21:26:55.497Z,9.02
2023-03-11T21:29:22.176Z,8.93
2023-03-11T21:31:48.881Z,9.18
2023-03-11T21:34:15.636Z,9.05
2023-03-11T21:36:42.529Z,9.10
2023-03-11T21:39:09.276Z,9.32
2023-03-11T21:41:35.901Z,9.68
2023-03-11T21:44:02.718Z,9.55
2023-03-11T21:46:31.610Z,9.40
2023-03-11T21:48:59.658Z,9.88
2023-03-11T21:51:27.584Z,9.53
2023-03-11T21:53:54.424Z,9.91
2023-03-11T21:56:21.277Z,9.81
2023-03-11T21:58:48.038Z,9.77
2023-03-11T22:01:14.871Z,10.08
2023-03-11T22:03:42.080Z,10.01
2023-03-11T22:06:11.823Z,9.10
2023-03-11T22:08:39.106Z,9.25
2023-03-11T22:11:11.851Z,9.42
2023-03-11T22:13:38.640Z,9.55
2023-03-11T22:16:06.793Z,9.70
2023-03-11T22:18:33.680Z,9.83
2023-03-11T22:21:00.968Z,9.60
2023-03-11T22:23:28.149Z,9.69
2023-03-11T22:25:54.970Z,9.90
2023-03-11T22:28:22.684Z,10.12
2023-03-11T22:30:49.372Z,10.18
2023-03-11T22:33:16.012Z,9.95
2023-03-11T22:35:50.256Z,9.96
2023-03-11T22:38:17.079Z,10.14
2023-03-11T22:40:43.828Z,10.13
2023-03-11T22:43:10.559Z,9.77
2023-03-11T22:45:37.234Z,9.62
2023-03-11T22:48:04.000Z,9.82
2023-03-11T22:50:31.027Z,9.91
2023-03-11T22:52:57.658Z,10.02
2023-03-11T22:55:24.297Z,8.77
2023-03-11T22:57:51.004Z,9.40
2023-03-11T23:00:21.892Z,8.88
2023-03-11T23:02:53.322Z,8.82
2023-03-11T23:05:20.517Z,9.05
2023-03-11T23:07:47.493Z,8.87
2023-03-11T23:10:15.799Z,9.27
2023-03-11T23:12:43.242Z,9.61
2023-03-11T23:15:14.271Z,9.09
2023-03-11T23:17:41.655Z,8.86
2023-03-11T23:20:14.868Z,8.89
2023-03-11T23:22:42.507Z,8.91
2023-03-11T23:25:14.769Z,8.99
2023-03-11T23:27:42.352Z,8.29
2023-03-11T23:30:12.888Z,8.53
2023-03-11T23:32:39.636Z,8.56
2023-03-11T23:35:06.896Z,8.35
2023-03-11T23:37:33.520Z,9.23
2023-03-11T23:40:00.191Z,9.46
2023-03-11T23:42:26.821Z,8.38
2023-03-11T23:44:54.178Z,7.58
2023-03-11T23:47:20.868Z,8.01
2023-03-11T23:49:47.500Z,8.57
2023-03-11T23:52:14.179Z,8.74
2023-03-11T23:54:40.861Z,9.00
2023-03-11T23:57:07.819Z,9.26
2023-03-11T23:59:34.565Z,9.63
